KLEX

Blue Grass Airport

Lexington, Kentucky, USA
METAR KLEX 121954Z 22012KT 10SM OVC055 10/00 A2995 RMK AO2 SLP145 T01000000
Observed Flight Rules
Dec-12 @ 19:54 UTC (15 minutes ago) Visual Flight Rules
Wind Visibility Clouds
220° at 12 knots 10 miles
  • Overcast at 5,500' AGL
Temperatures Readings
Current 10°C / 50°F
Dewpoint 0°C / 32°F
Humidity 50%
Altimeter 29.95" Hg
Pressure 1014.5 hPa
Elevation 300
METAR KLEX 121954Z 22012KT 10SM OVC055 10/00 A2995 RMK AO2 SLP145 T01000000
Observed Flight Rules
Dec-12 @ 19:54 UTC
(15 minutes ago)
VFR
Wind Visibility
220° at 12 knots 10 miles
Clouds
  • Overcast at 5,500' AGL
Temperature Dewpoint
10°C / 50°F 0°C / 32°F
Humidity Altimeter Pressure
50% 29.95" Hg 1014.5 hPa